Time;durP1;ratioP1;P1;durP2;ratioP2;P2;SDS_P1;SDS_P2;PMS_P1;PMS_P2;Temp;Humidity;BMP_temperature;BMP_pressure;BME280_temperature;BME280_humidity;BME280_pressure;Samples;Min_cycle;Max_cycle;Signal;HPM_P1;HPM_P2
2023/10/25 00:00:19;;;;;;;17.20;3.10;;;;;;;;;;5010245;28;20777;-79
2023/10/25 00:02:47;;;;;;;16.90;2.95;;;;;;;;;;5009356;28;20444;-80
2023/10/25 00:05:13;;;;;;;17.75;3.10;;;;;;;;;;5008330;28;20417;-81
2023/10/25 00:07:40;;;;;;;19.27;4.20;;;;;;;;;;5009427;28;20499;-79
2023/10/25 00:10:07;;;;;;;15.90;2.80;;;;;;;;;;5008765;28;20420;-79
2023/10/25 00:12:34;;;;;;;17.85;3.35;;;;;;;;;;5010211;28;20416;-78
2023/10/25 00:15:00;;;;;;;20.40;3.10;;;;;;;;;;5010177;28;20408;-81
2023/10/25 00:17:27;;;;;;;19.37;2.97;;;;;;;;;;5008586;28;20921;-80
2023/10/25 00:19:55;;;;;;;18.25;2.80;;;;;;;;;;5007673;28;20434;-80
2023/10/25 00:22:22;;;;;;;18.60;3.03;;;;;;;;;;5010410;28;20475;-80
2023/10/25 00:24:48;;;;;;;15.50;3.00;;;;;;;;;;5008638;28;20404;-80
2023/10/25 00:27:15;;;;;;;17.83;3.00;;;;;;;;;;5005918;28;20512;-82
2023/10/25 00:29:41;;;;;;;17.17;3.03;;;;;;;;;;5008136;28;20790;-81
2023/10/25 00:32:14;;;;;;;18.08;3.20;;;;;;;;;;5010158;28;20452;-80
2023/10/25 00:34:41;;;;;;;17.40;2.90;;;;;;;;;;5005621;28;20433;-81
2023/10/25 00:37:09;;;;;;;16.20;3.00;;;;;;;;;;5007551;28;20424;-81
2023/10/25 00:39:36;;;;;;;18.00;3.10;;;;;;;;;;5024894;28;20478;-79
2023/10/25 00:42:02;;;;;;;18.40;3.00;;;;;;;;;;5020995;28;20427;-80
2023/10/25 00:44:30;;;;;;;17.70;3.35;;;;;;;;;;5010697;28;20778;-81
2023/10/25 00:46:57;;;;;;;17.40;3.10;;;;;;;;;;5012232;28;20455;-82
2023/10/25 00:49:24;;;;;;;20.55;3.20;;;;;;;;;;5009575;28;20460;-81
2023/10/25 00:51:50;;;;;;;17.83;3.13;;;;;;;;;;5010812;28;21299;-82
2023/10/25 00:54:19;;;;;;;17.70;3.20;;;;;;;;;;5010426;28;20520;-80
2023/10/25 00:56:47;;;;;;;19.88;3.90;;;;;;;;;;5012146;28;20456;-80
2023/10/25 00:59:14;;;;;;;16.85;3.50;;;;;;;;;;5020742;28;20431;-81
2023/10/25 01:01:41;;;;;;;18.48;3.63;;;;;;;;;;4994898;28;20419;-80
2023/10/25 01:04:07;;;;;;;17.75;3.45;;;;;;;;;;5011745;28;20416;-81
2023/10/25 01:06:34;;;;;;;17.45;2.97;;;;;;;;;;5012694;28;20409;-80
2023/10/25 01:09:01;;;;;;;18.97;3.00;;;;;;;;;;5025236;28;20441;-81
2023/10/25 01:11:29;;;;;;;19.33;3.00;;;;;;;;;;5016166;28;20785;-80
2023/10/25 01:13:55;;;;;;;16.88;3.20;;;;;;;;;;5011925;28;20788;-79
2023/10/25 01:16:22;;;;;;;18.00;2.80;;;;;;;;;;5013034;28;20432;-80
2023/10/25 01:18:49;;;;;;;18.27;3.15;;;;;;;;;;5007872;28;20426;-81
2023/10/25 01:21:16;;;;;;;17.20;2.70;;;;;;;;;;5010386;28;20455;-80
2023/10/25 01:23:49;;;;;;;17.65;3.10;;;;;;;;;;5011561;28;20417;-80
2023/10/25 01:26:15;;;;;;;18.20;3.00;;;;;;;;;;5010851;28;20426;-81
2023/10/25 01:28:42;;;;;;;16.88;3.58;;;;;;;;;;5011195;28;20809;-80
2023/10/25 01:31:09;;;;;;;18.75;3.72;;;;;;;;;;5012855;28;20415;-81
2023/10/25 01:33:35;;;;;;;21.00;4.28;;;;;;;;;;5018749;28;20417;-81
2023/10/25 01:36:04;;;;;;;18.15;3.08;;;;;;;;;;5011141;28;20463;-79
2023/10/25 01:38:30;;;;;;;20.40;3.90;;;;;;;;;;5026499;28;20414;-81
2023/10/25 01:40:58;;;;;;;18.58;3.42;;;;;;;;;;4995582;28;20463;-82
2023/10/25 01:43:28;;;;;;;16.65;3.40;;;;;;;;;;5010383;28;20412;-81
2023/10/25 01:45:56;;;;;;;20.40;4.32;;;;;;;;;;5010539;28;20412;-82
2023/10/25 01:48:22;;;;;;;18.50;4.00;;;;;;;;;;5013439;28;20429;-81
2023/10/25 01:50:51;;;;;;;20.88;3.80;;;;;;;;;;5009177;28;20941;-80
2023/10/25 01:53:18;;;;;;;18.10;3.30;;;;;;;;;;4994423;28;20415;-81
2023/10/25 01:55:45;;;;;;;;;;;;;;;;;;5010206;28;20503;-78
2023/10/25 01:58:13;;;;;;;17.75;3.50;;;;;;;;;;5010610;28;20437;-80
2023/10/25 02:00:40;;;;;;;18.10;3.40;;;;;;;;;;5009007;28;20508;-81
2023/10/25 02:03:07;;;;;;;19.30;3.20;;;;;;;;;;5010015;28;20443;-81
2023/10/25 02:05:34;;;;;;;16.83;2.90;;;;;;;;;;5010905;28;20496;-81
2023/10/25 02:08:01;;;;;;;17.20;3.90;;;;;;;;;;5010689;28;20423;-79
2023/10/25 02:10:27;;;;;;;19.83;4.00;;;;;;;;;;5010803;28;20452;-81
2023/10/25 02:12:54;;;;;;;18.45;3.70;;;;;;;;;;5010675;28;20527;-81
2023/10/25 02:15:22;;;;;;;23.25;3.67;;;;;;;;;;5010054;28;20413;-81
2023/10/25 02:17:48;;;;;;;17.92;3.60;;;;;;;;;;5009471;28;20459;-80
2023/10/25 02:20:15;;;;;;;18.33;3.40;;;;;;;;;;5010547;28;20921;-81
2023/10/25 02:22:42;;;;;;;18.42;4.03;;;;;;;;;;4993435;28;21223;-81
2023/10/25 02:25:09;;;;;;;18.60;3.80;;;;;;;;;;5011807;28;20491;-80
2023/10/25 02:27:36;;;;;;;18.48;3.67;;;;;;;;;;5011324;28;20423;-81
2023/10/25 02:30:04;;;;;;;20.40;3.20;;;;;;;;;;5009624;28;20404;-82
2023/10/25 02:32:32;;;;;;;17.60;3.90;;;;;;;;;;5009623;28;20895;-80
2023/10/25 02:34:59;;;;;;;17.45;3.70;;;;;;;;;;5008165;28;20416;-81
2023/10/25 02:37:26;;;;;;;20.40;3.60;;;;;;;;;;5010065;28;20408;-80
2023/10/25 02:39:52;;;;;;;20.77;4.00;;;;;;;;;;5007018;28;20467;-81
2023/10/25 02:42:19;;;;;;;17.23;3.55;;;;;;;;;;5009832;28;20781;-80
2023/10/25 02:44:45;;;;;;;18.13;3.50;;;;;;;;;;5008426;28;20940;-82
2023/10/25 02:47:12;;;;;;;17.73;4.10;;;;;;;;;;5008214;28;20477;-81
2023/10/25 02:49:40;;;;;;;18.52;3.65;;;;;;;;;;5008538;28;20425;-82
2023/10/25 02:52:07;;;;;;;19.30;3.70;;;;;;;;;;5041385;28;20413;-81
2023/10/25 02:54:35;;;;;;;17.20;3.23;;;;;;;;;;5005235;28;20420;-81
2023/10/25 02:57:02;;;;;;;18.77;3.90;;;;;;;;;;5010716;28;20757;-81
2023/10/25 02:59:29;;;;;;;17.30;3.45;;;;;;;;;;5009634;28;20515;-82
2023/10/25 03:01:55;;;;;;;19.73;3.63;;;;;;;;;;5009112;28;20444;-82
2023/10/25 03:04:22;;;;;;;18.60;3.60;;;;;;;;;;5007491;28;20842;-80
2023/10/25 03:06:50;;;;;;;17.83;3.60;;;;;;;;;;4993863;28;20408;-82
2023/10/25 03:09:16;;;;;;;16.80;3.17;;;;;;;;;;5009203;28;20416;-81
2023/10/25 03:11:44;;;;;;;18.48;3.80;;;;;;;;;;5008433;28;20424;-81
2023/10/25 03:14:10;;;;;;;18.05;3.75;;;;;;;;;;5009465;28;20427;-79
2023/10/25 03:16:37;;;;;;;17.88;3.55;;;;;;;;;;4999237;28;21034;-79
2023/10/25 03:19:04;;;;;;;19.52;3.55;;;;;;;;;;5009174;28;20427;-82
2023/10/25 03:21:30;;;;;;;19.30;3.97;;;;;;;;;;5010984;28;20409;-83
2023/10/25 03:23:59;;;;;;;19.63;3.90;;;;;;;;;;5009299;28;20424;-82
2023/10/25 03:26:26;;;;;;;16.35;3.00;;;;;;;;;;4993398;28;20889;-81
2023/10/25 03:28:54;;;;;;;19.35;3.90;;;;;;;;;;5009270;28;20495;-82
2023/10/25 03:31:21;;;;;;;20.77;3.60;;;;;;;;;;5010398;28;20490;-81
2023/10/25 03:33:48;;;;;;;27.35;4.50;;;;;;;;;;5008820;28;20425;-82
2023/10/25 03:36:15;;;;;;;18.13;3.58;;;;;;;;;;5008914;28;20417;-82
2023/10/25 03:38:41;;;;;;;18.40;3.90;;;;;;;;;;5008893;28;20889;-80
2023/10/25 03:41:09;;;;;;;17.85;3.83;;;;;;;;;;5007088;28;20437;-82
2023/10/25 03:43:36;;;;;;;18.30;3.50;;;;;;;;;;5008515;28;20501;-80
2023/10/25 03:46:03;;;;;;;18.10;3.50;;;;;;;;;;5009788;28;20897;-81
2023/10/25 03:48:31;;;;;;;18.60;3.60;;;;;;;;;;5008839;28;20416;-81
2023/10/25 03:50:58;;;;;;;18.15;3.78;;;;;;;;;;5011092;28;20913;-82
2023/10/25 03:53:24;;;;;;;;;;;;;;;;;;5010376;28;20443;-82
2023/10/25 03:55:50;;;;;;;;;;;;;;;;;;5009058;28;20511;-80
2023/10/25 03:58:18;;;;;;;17.70;4.00;;;;;;;;;;5009133;28;20498;-81
2023/10/25 04:00:45;;;;;;;23.30;3.95;;;;;;;;;;4997105;28;20980;-80
2023/10/25 04:03:12;;;;;;;18.00;4.47;;;;;;;;;;5010179;28;20405;-81
2023/10/25 04:05:38;;;;;;;;;;;;;;;;;;5010029;28;20778;-80
2023/10/25 04:08:05;;;;;;;17.80;4.20;;;;;;;;;;5010046;28;20748;-82
2023/10/25 04:10:32;;;;;;;21.80;3.97;;;;;;;;;;5009765;28;20955;-79
2023/10/25 04:12:59;;;;;;;17.80;4.50;;;;;;;;;;5009823;28;20416;-81
2023/10/25 04:15:29;;;;;;;17.90;3.72;;;;;;;;;;5011473;28;20459;-81
2023/10/25 04:17:56;;;;;;;17.23;4.07;;;;;;;;;;5008749;28;20400;-81
2023/10/25 04:20:22;;;;;;;18.13;3.90;;;;;;;;;;5008642;28;20429;-81
2023/10/25 04:22:49;;;;;;;19.50;4.63;;;;;;;;;;5008451;28;20459;-81
2023/10/25 04:25:15;;;;;;;20.35;4.20;;;;;;;;;;5009298;28;20517;-82
2023/10/25 04:27:42;;;;;;;20.00;4.43;;;;;;;;;;5009809;28;20424;-81
2023/10/25 04:30:09;;;;;;;17.60;4.32;;;;;;;;;;5015002;28;20443;-81
2023/10/25 04:32:37;;;;;;;18.83;4.60;;;;;;;;;;5012368;28;20516;-81
2023/10/25 04:35:04;;;;;;;19.10;4.00;;;;;;;;;;5015235;28;20919;-80
2023/10/25 04:37:31;;;;;;;18.73;4.40;;;;;;;;;;5012902;28;20492;-80
2023/10/25 04:39:57;;;;;;;18.67;3.97;;;;;;;;;;5009499;28;20747;-80
2023/10/25 04:42:24;;;;;;;19.67;3.83;;;;;;;;;;5019786;28;20515;-81
2023/10/25 04:44:50;;;;;;;19.30;4.25;;;;;;;;;;5008701;28;20422;-81
2023/10/25 04:47:17;;;;;;;20.65;4.80;;;;;;;;;;5010701;28;20416;-81
2023/10/25 04:49:45;;;;;;;19.50;4.95;;;;;;;;;;5009321;28;20471;-79
2023/10/25 04:52:12;;;;;;;21.90;5.05;;;;;;;;;;5011990;28;20420;-81
2023/10/25 04:54:41;;;;;;;19.70;4.75;;;;;;;;;;5009307;28;20827;-81
2023/10/25 04:57:08;;;;;;;18.07;4.30;;;;;;;;;;5025947;28;20523;-79
2023/10/25 04:59:34;;;;;;;19.52;3.92;;;;;;;;;;5011991;28;20416;-79
2023/10/25 05:02:01;;;;;;;17.50;4.15;;;;;;;;;;5007997;28;20421;-80
2023/10/25 05:04:30;;;;;;;20.50;4.60;;;;;;;;;;4994650;28;20412;-81
2023/10/25 05:06:58;;;;;;;19.77;4.53;;;;;;;;;;5007824;28;20420;-81
2023/10/25 05:09:25;;;;;;;21.00;5.00;;;;;;;;;;5012194;28;20766;-80
2023/10/25 05:11:54;;;;;;;19.23;4.50;;;;;;;;;;5011499;28;20929;-79
2023/10/25 05:14:21;;;;;;;19.70;4.70;;;;;;;;;;5012232;28;20444;-81
2023/10/25 05:16:47;;;;;;;21.65;4.60;;;;;;;;;;5010652;28;20416;-80
2023/10/25 05:19:14;;;;;;;17.85;4.30;;;;;;;;;;5012253;28;20424;-81
2023/10/25 05:21:42;;;;;;;21.33;4.97;;;;;;;;;;5010050;28;20806;-81
2023/10/25 05:24:10;;;;;;;19.23;5.10;;;;;;;;;;5011574;28;20423;-81
2023/10/25 05:26:37;;;;;;;19.50;4.90;;;;;;;;;;5008284;28;20442;-80
2023/10/25 05:29:04;;;;;;;18.83;4.97;;;;;;;;;;5010580;28;20418;-80
2023/10/25 05:31:32;;;;;;;19.48;4.93;;;;;;;;;;5008191;28;20424;-80
2023/10/25 05:33:59;;;;;;;25.23;5.05;;;;;;;;;;5021601;28;20516;-80
2023/10/25 05:36:26;;;;;;;20.00;5.20;;;;;;;;;;5005845;28;20424;-81
2023/10/25 05:38:53;;;;;;;22.98;5.53;;;;;;;;;;5006874;28;20916;-81
2023/10/25 05:41:22;;;;;;;19.80;4.50;;;;;;;;;;5009765;28;20424;-80
2023/10/25 05:43:53;;;;;;;19.48;4.20;;;;;;;;;;5015652;28;20423;-79
2023/10/25 05:46:19;;;;;;;19.57;4.90;;;;;;;;;;5008974;28;20423;-81
2023/10/25 05:48:47;;;;;;;20.92;4.22;;;;;;;;;;5011352;28;20940;-81
2023/10/25 05:51:13;;;;;;;19.83;5.05;;;;;;;;;;5009579;28;20804;-81
2023/10/25 05:53:40;;;;;;;21.50;5.82;;;;;;;;;;5009705;28;20429;-80
2023/10/25 05:56:07;;;;;;;18.83;4.50;;;;;;;;;;5009598;28;20448;-80
2023/10/25 05:58:36;;;;;;;20.83;5.05;;;;;;;;;;5010226;28;20868;-81
2023/10/25 06:01:06;;;;;;;19.02;4.18;;;;;;;;;;5009787;28;20944;-79
2023/10/25 06:03:34;;;;;;;21.60;4.47;;;;;;;;;;5009975;28;20408;-80
2023/10/25 06:06:01;;;;;;;17.98;3.90;;;;;;;;;;5010382;28;20421;-81
2023/10/25 06:08:28;;;;;;;18.20;3.80;;;;;;;;;;5011745;28;20432;-81
2023/10/25 06:10:55;;;;;;;18.58;3.95;;;;;;;;;;5011171;28;20496;-81
2023/10/25 06:13:22;;;;;;;19.83;4.03;;;;;;;;;;5009507;28;20812;-81
2023/10/25 06:15:50;;;;;;;19.70;3.90;;;;;;;;;;5009397;28;20431;-79
2023/10/25 06:18:17;;;;;;;18.63;3.70;;;;;;;;;;5009590;28;20420;-80
2023/10/25 06:20:43;;;;;;;17.73;3.90;;;;;;;;;;5009487;28;20425;-79
2023/10/25 06:23:10;;;;;;;17.17;3.55;;;;;;;;;;5009565;28;20485;-81
2023/10/25 06:25:37;;;;;;;23.23;4.20;;;;;;;;;;5008717;28;20453;-79
2023/10/25 06:28:04;;;;;;;19.70;4.40;;;;;;;;;;5010596;28;20967;-82
2023/10/25 06:30:32;;;;;;;19.00;3.80;;;;;;;;;;5016249;28;20904;-81
2023/10/25 06:33:00;;;;;;;21.15;4.38;;;;;;;;;;5009459;28;20483;-80
2023/10/25 06:35:27;;;;;;;18.65;3.80;;;;;;;;;;4988998;28;20940;-80
2023/10/25 06:37:53;;;;;;;18.27;4.03;;;;;;;;;;5009997;28;20580;-82
2023/10/25 06:40:22;;;;;;;18.60;4.20;;;;;;;;;;5008846;28;20834;-82
2023/10/25 06:42:49;;;;;;;20.35;4.18;;;;;;;;;;5009561;28;20419;-81
2023/10/25 06:45:16;;;;;;;18.63;3.90;;;;;;;;;;5010516;28;20929;-80
2023/10/25 06:47:43;;;;;;;16.92;3.40;;;;;;;;;;5008285;28;20486;-80
2023/10/25 06:50:12;;;;;;;18.92;3.78;;;;;;;;;;5009458;28;20459;-79
2023/10/25 06:52:39;;;;;;;17.60;3.57;;;;;;;;;;5003770;28;20417;-81
2023/10/25 06:55:06;;;;;;;20.15;4.38;;;;;;;;;;5007242;28;20409;-79
2023/10/25 06:57:33;;;;;;;19.88;3.33;;;;;;;;;;5008602;28;20532;-81
2023/10/25 07:00:02;;;;;;;18.33;4.10;;;;;;;;;;5010379;28;20408;-80
2023/10/25 07:02:33;;;;;;;16.30;2.90;;;;;;;;;;5008781;28;20487;-79
2023/10/25 07:05:05;;;;;;;20.65;2.70;;;;;;;;;;5010042;28;20417;-81
2023/10/25 07:07:34;;;;;;;18.95;3.28;;;;;;;;;;5008024;28;20404;-81
2023/10/25 07:10:03;;;;;;;18.33;3.03;;;;;;;;;;5011140;28;20851;-80
2023/10/25 07:12:30;;;;;;;18.90;3.05;;;;;;;;;;5024685;28;20422;-80
2023/10/25 07:14:57;;;;;;;17.15;3.17;;;;;;;;;;5009202;28;20419;-81
2023/10/25 07:17:24;;;;;;;16.77;2.50;;;;;;;;;;5008727;28;20409;-82
2023/10/25 07:19:50;;;;;;;17.80;2.80;;;;;;;;;;5008031;28;20413;-82
2023/10/25 07:22:17;;;;;;;17.60;3.40;;;;;;;;;;5010600;28;20916;-82
2023/10/25 07:24:45;;;;;;;17.75;2.50;;;;;;;;;;5009953;28;20434;-81
2023/10/25 07:27:12;;;;;;;18.60;2.22;;;;;;;;;;5009116;28;20819;-81
2023/10/25 07:29:39;;;;;;;16.70;2.28;;;;;;;;;;5009310;28;20417;-80
2023/10/25 07:32:05;;;;;;;16.20;2.20;;;;;;;;;;5011532;28;20885;-80
2023/10/25 07:34:32;;;;;;;16.43;2.10;;;;;;;;;;5006594;28;20423;-79
2023/10/25 07:36:59;;;;;;;16.80;1.80;;;;;;;;;;5007489;28;20427;-82
2023/10/25 07:39:26;;;;;;;16.55;2.10;;;;;;;;;;5010020;28;20484;-80
2023/10/25 07:41:54;;;;;;;14.97;1.83;;;;;;;;;;5007642;28;20583;-80
2023/10/25 07:44:21;;;;;;;18.30;2.30;;;;;;;;;;5014483;28;20955;-80
2023/10/25 07:46:47;;;;;;;17.02;2.38;;;;;;;;;;5009816;28;20508;-80
2023/10/25 07:49:14;;;;;;;17.00;1.90;;;;;;;;;;5014561;28;20415;-80
2023/10/25 07:51:41;;;;;;;15.32;1.98;;;;;;;;;;5007064;28;20415;-80
2023/10/25 07:54:07;;;;;;;18.27;2.15;;;;;;;;;;5007773;28;20456;-81
2023/10/25 07:56:34;;;;;;;16.60;2.40;;;;;;;;;;5010278;28;20500;-81
2023/10/25 07:59:05;;;;;;;17.00;1.90;;;;;;;;;;5009391;28;21077;-80
2023/10/25 08:01:31;;;;;;;15.50;2.10;;;;;;;;;;5012150;28;20420;-82
2023/10/25 08:03:58;;;;;;;15.50;1.98;;;;;;;;;;5012794;28;20408;-79
2023/10/25 08:06:25;;;;;;;17.13;2.50;;;;;;;;;;5005166;28;20408;-80
2023/10/25 08:08:53;;;;;;;17.10;2.10;;;;;;;;;;5010430;28;21022;-79
2023/10/25 08:11:20;;;;;;;16.48;1.80;;;;;;;;;;5010295;28;20413;-80
2023/10/25 08:13:46;;;;;;;17.40;2.00;;;;;;;;;;5013186;28;20486;-81
2023/10/25 08:16:14;;;;;;;18.30;2.10;;;;;;;;;;5014738;28;20413;-80
2023/10/25 08:18:41;;;;;;;17.60;2.42;;;;;;;;;;5017438;28;20466;-82
2023/10/25 08:21:11;;;;;;;15.30;2.03;;;;;;;;;;5001519;28;21438;-79
2023/10/25 08:23:38;;;;;;;15.03;1.90;;;;;;;;;;5013234;28;20431;-80
2023/10/25 08:26:05;;;;;;;17.20;1.80;;;;;;;;;;5013210;28;20512;-81
2023/10/25 08:28:31;;;;;;;16.90;1.80;;;;;;;;;;5011497;28;20491;-80
2023/10/25 08:30:58;;;;;;;14.88;1.50;;;;;;;;;;5014461;28;20421;-79
2023/10/25 08:33:26;;;;;;;15.20;1.80;;;;;;;;;;5016394;28;20497;-81
2023/10/25 08:36:00;;;;;;;18.58;1.80;;;;;;;;;;5026305;28;20411;-80
2023/10/25 08:38:26;;;;;;;14.98;1.77;;;;;;;;;;5011295;28;20439;-79
2023/10/25 08:41:00;;;;;;;14.53;1.40;;;;;;;;;;5011913;28;20455;-81
2023/10/25 08:43:27;;;;;;;15.00;1.60;;;;;;;;;;5006907;28;20415;-81
2023/10/25 08:45:56;;;;;;;16.05;1.70;;;;;;;;;;5009833;28;20905;-80
2023/10/25 08:48:24;;;;;;;16.35;1.75;;;;;;;;;;5011142;28;20409;-81
2023/10/25 08:50:52;;;;;;;15.05;1.70;;;;;;;;;;5012267;28;20922;-78
2023/10/25 08:53:20;;;;;;;17.65;1.92;;;;;;;;;;5010589;28;20405;-82
2023/10/25 08:55:49;;;;;;;16.30;1.70;;;;;;;;;;4994877;28;20754;-80
2023/10/25 08:58:17;;;;;;;16.98;1.90;;;;;;;;;;5010633;28;20412;-80
2023/10/25 09:00:43;;;;;;;17.77;2.00;;;;;;;;;;5010893;28;20404;-81
2023/10/25 09:03:35;;;;;;;16.13;1.70;;;;;;;;;;5011188;28;20496;-81
2023/10/25 09:06:03;;;;;;;15.60;2.10;;;;;;;;;;4999217;28;20421;-80
2023/10/25 09:08:31;;;;;;;15.90;2.00;;;;;;;;;;4994023;28;20981;-80
2023/10/25 09:11:00;;;;;;;16.40;1.60;;;;;;;;;;4997189;28;20877;-81
2023/10/25 09:13:26;;;;;;;16.30;1.83;;;;;;;;;;5012792;28;20475;-80
2023/10/25 09:16:01;;;;;;;17.77;2.17;;;;;;;;;;5013051;28;20769;-80
2023/10/25 09:18:28;;;;;;;15.80;1.90;;;;;;;;;;5012132;28;20467;-81
2023/10/25 09:20:54;;;;;;;15.75;1.85;;;;;;;;;;5011189;28;20511;-82
2023/10/25 09:23:39;;;;;;;16.63;1.70;;;;;;;;;;5012824;28;20408;-80
2023/10/25 09:26:13;;;;;;;16.48;2.00;;;;;;;;;;5010295;28;20420;-81
2023/10/25 09:28:39;;;;;;;16.10;1.80;;;;;;;;;;5011474;28;20429;-80
2023/10/25 09:31:19;;;;;;;14.93;1.70;;;;;;;;;;5025783;28;20464;-82
2023/10/25 09:33:46;;;;;;;16.98;2.25;;;;;;;;;;5002567;28;21129;-78
2023/10/25 09:36:13;;;;;;;17.90;2.00;;;;;;;;;;5009667;28;20848;-82
2023/10/25 09:38:41;;;;;;;16.00;2.60;;;;;;;;;;5012103;28;20416;-81
2023/10/25 09:41:10;;;;;;;15.38;2.00;;;;;;;;;;5012313;28;20769;-81
2023/10/25 09:43:38;;;;;;;15.13;1.70;;;;;;;;;;5009349;28;20505;-80
2023/10/25 09:46:07;;;;;;;15.30;1.90;;;;;;;;;;5010591;28;20523;-80
2023/10/25 09:48:35;;;;;;;14.50;1.50;;;;;;;;;;5010041;28;20511;-81
2023/10/25 09:51:04;;;;;;;14.85;1.85;;;;;;;;;;5011453;28;20408;-80
2023/10/25 09:53:36;;;;;;;18.90;2.00;;;;;;;;;;5010878;28;20415;-81
2023/10/25 09:56:07;;;;;;;15.10;2.00;;;;;;;;;;5008994;28;20944;-80
2023/10/25 09:58:34;;;;;;;15.93;1.80;;;;;;;;;;4994648;28;20431;-81
2023/10/25 10:01:03;;;;;;;16.88;1.90;;;;;;;;;;5016573;28;20419;-81
2023/10/25 10:03:33;;;;;;;16.27;1.70;;;;;;;;;;5011991;28;20442;-82
2023/10/25 10:06:03;;;;;;;15.70;1.90;;;;;;;;;;5011878;28;20524;-81
2023/10/25 10:08:37;;;;;;;15.80;2.00;;;;;;;;;;5008103;28;20615;-79
2023/10/25 10:11:09;;;;;;;18.10;2.50;;;;;;;;;;5009170;28;20889;-81
2023/10/25 10:13:35;;;;;;;14.98;2.00;;;;;;;;;;4997178;28;20413;-81
2023/10/25 10:16:04;;;;;;;16.75;2.13;;;;;;;;;;5010880;28;20408;-82
2023/10/25 10:18:31;;;;;;;15.00;2.13;;;;;;;;;;5010982;28;20412;-78
2023/10/25 10:20:59;;;;;;;15.82;2.33;;;;;;;;;;5010830;28;20416;-78
2023/10/25 10:23:33;;;;;;;16.48;2.30;;;;;;;;;;5009574;28;20455;-81
2023/10/25 10:26:01;;;;;;;18.00;3.00;;;;;;;;;;5009910;28;20486;-78
2023/10/25 10:28:39;;;;;;;18.13;3.28;;;;;;;;;;5009576;28;20420;-80
2023/10/25 10:31:06;;;;;;;16.90;2.75;;;;;;;;;;5006646;28;20433;-82
2023/10/25 10:33:34;;;;;;;16.20;3.20;;;;;;;;;;4996315;28;20405;-86
2023/10/25 10:36:03;;;;;;;19.33;3.60;;;;;;;;;;5015901;28;20820;-85
2023/10/25 10:38:44;;;;;;;17.90;3.70;;;;;;;;;;5013067;28;20921;-84
2023/10/25 10:41:13;;;;;;;17.20;3.40;;;;;;;;;;5010230;28;20790;-85
2023/10/25 10:43:56;;;;;;;19.90;4.83;;;;;;;;;;5098871;27;20428;-84
2023/10/25 10:46:26;;;;;;;19.35;4.78;;;;;;;;;;5101478;28;20404;-84
2023/10/25 10:48:54;;;;;;;20.67;4.68;;;;;;;;;;5088284;28;20407;-83
2023/10/25 10:51:21;;;;;;;17.60;4.80;;;;;;;;;;5095456;28;20410;-81
2023/10/25 10:53:49;;;;;;;19.20;5.15;;;;;;;;;;5092065;28;20877;-83
2023/10/25 10:56:15;;;;;;;19.00;4.88;;;;;;;;;;5088876;28;20500;-82
2023/10/25 10:58:43;;;;;;;22.60;5.60;;;;;;;;;;5097796;28;20934;-85
2023/10/25 11:01:11;;;;;;;21.17;5.28;;;;;;;;;;5097001;28;20430;-84
2023/10/25 11:03:38;;;;;;;19.20;5.70;;;;;;;;;;5099920;28;20501;-85
2023/10/25 11:06:05;;;;;;;21.38;5.30;;;;;;;;;;5098072;28;20889;-83
2023/10/25 11:08:35;;;;;;;18.80;5.30;;;;;;;;;;5096307;28;20637;-82
2023/10/25 11:11:01;;;;;;;19.30;5.60;;;;;;;;;;5096757;28;20405;-82
2023/10/25 11:13:31;;;;;;;19.75;5.70;;;;;;;;;;5096241;28;20408;-82
2023/10/25 11:16:01;;;;;;;19.90;6.10;;;;;;;;;;5097173;28;20410;-84
2023/10/25 11:18:29;;;;;;;24.95;7.88;;;;;;;;;;5095415;28;20413;-83
2023/10/25 11:20:56;;;;;;;21.90;6.78;;;;;;;;;;5081020;28;20425;-83
2023/10/25 11:23:22;;;;;;;22.80;6.32;;;;;;;;;;5085695;28;20972;-86
2023/10/25 11:25:49;;;;;;;20.10;6.13;;;;;;;;;;5096830;28;20962;-82
2023/10/25 11:28:18;;;;;;;19.50;5.70;;;;;;;;;;5081103;28;21003;-85
2023/10/25 11:30:45;;;;;;;20.30;5.90;;;;;;;;;;5093587;28;20405;-83
2023/10/25 11:33:12;;;;;;;20.73;5.30;;;;;;;;;;5096576;28;20404;-79
2023/10/25 11:35:42;;;;;;;20.10;5.65;;;;;;;;;;5095428;28;20893;-79
2023/10/25 11:38:09;;;;;;;18.40;5.25;;;;;;;;;;5093757;28;20456;-81
2023/10/25 11:40:38;;;;;;;19.90;5.63;;;;;;;;;;5084423;28;20418;-84
2023/10/25 11:43:05;;;;;;;20.88;5.85;;;;;;;;;;5108502;28;20528;-80
2023/10/25 11:45:32;;;;;;;21.20;5.30;;;;;;;;;;5117758;28;20478;-84
2023/10/25 11:47:59;;;;;;;20.17;5.88;;;;;;;;;;5113506;28;21386;-84
2023/10/25 11:50:26;;;;;;;20.15;5.20;;;;;;;;;;5116693;28;20408;-81
2023/10/25 11:52:54;;;;;;;20.37;5.30;;;;;;;;;;5106217;28;20407;-82
2023/10/25 11:55:21;;;;;;;20.30;5.35;;;;;;;;;;5101027;28;20952;-80
2023/10/25 11:57:47;;;;;;;20.70;5.70;;;;;;;;;;5101835;28;20405;-80
2023/10/25 12:00:14;;;;;;;18.65;5.00;;;;;;;;;;5097695;28;20885;-84
2023/10/25 12:02:43;;;;;;;18.38;4.38;;;;;;;;;;5109886;28;20531;-82
2023/10/25 12:05:10;;;;;;;20.33;5.60;;;;;;;;;;5103764;28;20396;-83
2023/10/25 12:07:36;;;;;;;19.90;4.70;;;;;;;;;;5101094;28;20535;-82
2023/10/25 12:10:05;;;;;;;18.80;5.07;;;;;;;;;;5103865;28;20510;-81
2023/10/25 12:12:32;;;;;;;18.70;4.60;;;;;;;;;;5091454;28;20844;-83
2023/10/25 12:14:58;;;;;;;19.73;4.90;;;;;;;;;;5102382;28;20404;-82
2023/10/25 12:17:25;;;;;;;18.67;4.70;;;;;;;;;;5099161;28;20402;-81
2023/10/25 12:19:52;;;;;;;20.00;4.70;;;;;;;;;;5103331;28;20428;-81
2023/10/25 12:22:18;;;;;;;19.17;4.50;;;;;;;;;;5091067;28;20424;-82
2023/10/25 12:24:48;;;;;;;18.48;4.38;;;;;;;;;;5102729;28;20408;-83
2023/10/25 12:27:17;;;;;;;18.52;4.05;;;;;;;;;;5102780;28;20402;-83
2023/10/25 12:29:44;;;;;;;18.20;3.83;;;;;;;;;;5100316;28;20496;-84
2023/10/25 12:32:11;;;;;;;20.90;4.17;;;;;;;;;;5098363;28;20489;-83
2023/10/25 12:34:37;;;;;;;20.80;4.78;;;;;;;;;;5101679;28;20401;-84
2023/10/25 12:37:04;;;;;;;18.05;4.80;;;;;;;;;;5104028;28;20496;-85
2023/10/25 12:39:31;;;;;;;20.30;4.75;;;;;;;;;;5098086;28;20441;-86
2023/10/25 12:41:58;;;;;;;18.70;4.05;;;;;;;;;;5099919;28;20404;-85
2023/10/25 12:44:27;;;;;;;19.13;3.80;;;;;;;;;;5101003;28;20961;-81
2023/10/25 12:46:54;;;;;;;19.48;3.80;;;;;;;;;;5099917;28;20428;-84
2023/10/25 12:49:20;;;;;;;16.90;3.40;;;;;;;;;;5100743;28;20947;-82
2023/10/25 12:51:50;;;;;;;16.70;3.40;;;;;;;;;;5082567;28;20757;-83
2023/10/25 12:54:16;;;;;;;16.73;3.40;;;;;;;;;;5102778;28;20428;-84
2023/10/25 12:56:44;;;;;;;16.55;3.60;;;;;;;;;;5101750;28;20901;-83
2023/10/25 12:59:10;;;;;;;18.88;3.90;;;;;;;;;;5107436;28;20778;-84
2023/10/25 13:01:40;;;;;;;17.48;3.80;;;;;;;;;;5090122;28;20455;-82
2023/10/25 13:04:18;;;;;;;17.10;3.85;;;;;;;;;;5100625;28;20412;-82
2023/10/25 13:06:45;;;;;;;17.00;3.65;;;;;;;;;;5099878;28;20400;-79
2023/10/25 13:09:12;;;;;;;17.05;3.50;;;;;;;;;;5101386;28;20413;-81
2023/10/25 13:11:38;;;;;;;17.90;4.00;;;;;;;;;;5104915;28;20407;-82
2023/10/25 13:14:05;;;;;;;17.75;3.83;;;;;;;;;;5100842;28;20407;-82
2023/10/25 13:16:32;;;;;;;18.23;3.70;;;;;;;;;;5099826;28;20810;-82
2023/10/25 13:19:03;;;;;;;17.90;3.30;;;;;;;;;;5103335;28;20436;-82
2023/10/25 13:21:29;;;;;;;17.30;3.30;;;;;;;;;;5084795;28;20470;-82
2023/10/25 13:23:56;;;;;;;17.30;3.60;;;;;;;;;;5097150;28;20422;-83
2023/10/25 13:26:22;;;;;;;17.17;3.43;;;;;;;;;;5102080;28;20406;-84
2023/10/25 13:28:49;;;;;;;17.20;3.30;;;;;;;;;;5100018;28;20469;-83
2023/10/25 13:31:16;;;;;;;17.38;3.47;;;;;;;;;;5098881;28;20499;-83
2023/10/25 13:33:43;;;;;;;16.60;3.55;;;;;;;;;;5101552;28;20868;-83
2023/10/25 13:36:11;;;;;;;16.90;3.30;;;;;;;;;;5098978;28;20404;-82
2023/10/25 13:38:38;;;;;;;17.80;3.90;;;;;;;;;;5101290;28;20529;-82
2023/10/25 13:41:04;;;;;;;17.27;3.35;;;;;;;;;;5099389;28;20410;-83
2023/10/25 13:43:31;;;;;;;18.15;3.80;;;;;;;;;;5081497;28;20436;-85
2023/10/25 13:45:58;;;;;;;18.45;3.72;;;;;;;;;;5102146;28;20915;-82
2023/10/25 13:48:25;;;;;;;19.00;3.40;;;;;;;;;;5099573;28;20459;-81
2023/10/25 13:50:52;;;;;;;17.93;3.67;;;;;;;;;;5098157;28;20400;-81
2023/10/25 13:53:20;;;;;;;16.70;3.00;;;;;;;;;;5100722;28;20433;-81
2023/10/25 13:55:46;;;;;;;16.55;3.10;;;;;;;;;;5100133;28;20448;-83
2023/10/25 13:58:13;;;;;;;18.45;3.33;;;;;;;;;;5103982;28;20414;-82
2023/10/25 14:00:45;;;;;;;18.00;3.28;;;;;;;;;;5098174;28;20760;-83
2023/10/25 14:03:12;;;;;;;17.05;3.40;;;;;;;;;;5084254;28;20423;-81
2023/10/25 14:05:40;;;;;;;17.40;2.80;;;;;;;;;;5105327;28;20406;-81
2023/10/25 14:08:08;;;;;;;16.60;3.10;;;;;;;;;;5100573;28;20441;-82
2023/10/25 14:10:41;;;;;;;16.70;2.78;;;;;;;;;;5099068;28;20441;-81
2023/10/25 14:13:08;;;;;;;16.13;2.40;;;;;;;;;;5088534;28;20402;-84
2023/10/25 14:15:56;;;;;;;17.95;2.60;;;;;;;;;;5099399;28;20394;-85
2023/10/25 14:18:22;;;;;;;16.35;2.53;;;;;;;;;;5097951;28;20401;-82
2023/10/25 14:20:49;;;;;;;15.80;2.67;;;;;;;;;;5099484;28;20412;-84
2023/10/25 14:23:16;;;;;;;16.55;2.50;;;;;;;;;;5095924;28;20429;-81
2023/10/25 14:25:44;;;;;;;16.00;2.80;;;;;;;;;;5096314;28;20404;-81
2023/10/25 14:28:11;;;;;;;15.80;2.40;;;;;;;;;;5102071;28;20406;-82
2023/10/25 14:30:38;;;;;;;15.50;2.47;;;;;;;;;;5096915;28;20493;-83
2023/10/25 14:33:05;;;;;;;16.15;2.90;;;;;;;;;;5100115;28;20506;-82